createdAt,value
2023-05-01T00:01:48.542Z,5.97
2023-05-01T00:03:41.545Z,5.93
2023-05-01T00:05:34.755Z,5.90
2023-05-01T00:07:31.088Z,5.88
2023-05-01T00:09:23.924Z,5.84
2023-05-01T00:11:16.778Z,5.81
2023-05-01T00:13:12.787Z,5.78
2023-05-01T00:15:06.965Z,5.76
2023-05-01T00:16:59.838Z,5.74
2023-05-01T00:18:52.758Z,5.70
2023-05-01T00:20:45.704Z,5.68
2023-05-01T00:22:38.453Z,5.67
2023-05-01T00:24:31.292Z,5.66
2023-05-01T00:26:27.215Z,5.66
2023-05-01T00:28:20.260Z,5.66
2023-05-01T00:30:13.101Z,5.66
2023-05-01T00:32:06.269Z,5.67
2023-05-01T00:33:59.210Z,5.68
2023-05-01T00:35:52.975Z,5.68
2023-05-01T00:37:45.830Z,5.69
2023-05-01T00:39:39.284Z,5.67
2023-05-01T00:41:32.242Z,5.67
2023-05-01T00:43:25.084Z,5.68
2023-05-01T00:45:18.362Z,5.67
2023-05-01T00:47:12.004Z,5.68
2023-05-01T00:49:04.886Z,5.68
2023-05-01T00:50:58.615Z,5.65
2023-05-01T00:52:51.578Z,5.63
2023-05-01T00:54:52.018Z,5.63
2023-05-01T00:56:46.576Z,5.62
2023-05-01T00:58:40.458Z,5.61
2023-05-01T01:00:33.294Z,5.59
2023-05-01T01:02:27.440Z,5.57
2023-05-01T01:04:20.440Z,5.55
2023-05-01T01:06:20.517Z,5.53
2023-05-01T01:08:32.451Z,5.50
2023-05-01T01:10:51.619Z,5.46
2023-05-01T01:12:54.825Z,5.43
2023-05-01T01:14:55.454Z,5.40
2023-05-01T01:17:08.753Z,5.38
2023-05-01T01:19:20.513Z,5.37
2023-05-01T01:21:41.515Z,5.35
2023-05-01T01:24:02.625Z,5.34
2023-05-01T01:26:04.696Z,5.34
2023-05-01T01:28:48.978Z,5.33
2023-05-01T01:31:05.549Z,5.30
2023-05-01T01:33:18.261Z,5.27
2023-05-01T01:35:18.814Z,5.23
2023-05-01T01:37:19.800Z,5.19
2023-05-01T01:39:33.965Z,5.17
2023-05-01T01:41:31.929Z,5.15
2023-05-01T01:43:27.219Z,5.13
2023-05-01T01:45:24.285Z,5.11
2023-05-01T01:47:19.275Z,5.07
2023-05-01T01:49:20.639Z,5.05
2023-05-01T01:51:18.322Z,5.00
2023-05-01T01:53:17.481Z,4.96
2023-05-01T01:55:13.717Z,4.93
2023-05-01T01:57:09.307Z,4.87
2023-05-01T01:59:05.237Z,4.84
2023-05-01T02:00:59.399Z,4.80
2023-05-01T02:02:53.943Z,4.78
2023-05-01T02:04:49.916Z,4.76
2023-05-01T02:06:44.771Z,4.75
2023-05-01T02:08:38.664Z,4.72
2023-05-01T02:10:34.383Z,4.72
2023-05-01T02:12:28.726Z,4.71
2023-05-01T02:14:25.298Z,4.69
2023-05-01T02:16:21.064Z,4.67
2023-05-01T02:18:15.295Z,4.64
2023-05-01T02:20:10.475Z,4.62
2023-05-01T02:22:06.097Z,4.61
2023-05-01T02:24:01.929Z,4.58
2023-05-01T02:25:58.144Z,4.57
2023-05-01T02:27:57.041Z,4.56
2023-05-01T02:29:52.434Z,4.53
2023-05-01T02:31:45.530Z,4.50
2023-05-01T02:33:38.544Z,4.49
2023-05-01T02:35:31.895Z,4.48
2023-05-01T02:37:24.742Z,4.46
2023-05-01T02:39:17.994Z,4.43
2023-05-01T02:41:12.541Z,4.41
2023-05-01T02:43:09.189Z,4.40
2023-05-01T02:45:05.590Z,4.38
2023-05-01T02:47:01.056Z,4.37
2023-05-01T02:48:55.332Z,4.34
2023-05-01T02:50:49.459Z,4.32
2023-05-01T02:52:43.785Z,4.30
2023-05-01T02:54:52.095Z,4.26
2023-05-01T02:56:45.254Z,4.22
2023-05-01T02:58:38.544Z,4.19
2023-05-01T03:00:31.454Z,4.13
2023-05-01T03:02:24.402Z,4.04
2023-05-01T03:04:17.689Z,3.96
2023-05-01T03:06:10.651Z,3.89
2023-05-01T03:08:04.375Z,3.82
2023-05-01T03:09:57.526Z,3.78
2023-05-01T03:11:50.680Z,3.77
2023-05-01T03:13:44.039Z,3.77
2023-05-01T03:15:38.099Z,3.76
2023-05-01T03:17:31.216Z,3.76
2023-05-01T03:19:24.315Z,3.76
2023-05-01T03:21:17.156Z,3.76
2023-05-01T03:23:10.208Z,3.76
2023-05-01T03:25:04.467Z,3.75
2023-05-01T03:26:59.072Z,3.75
2023-05-01T03:28:52.022Z,3.74
2023-05-01T03:30:45.285Z,3.76
2023-05-01T03:32:38.362Z,3.76
2023-05-01T03:34:32.195Z,3.78
2023-05-01T03:36:25.354Z,3.81
2023-05-01T03:38:18.502Z,3.83
2023-05-01T03:40:30.009Z,3.86
2023-05-01T03:42:49.148Z,3.87
2023-05-01T03:44:46.191Z,3.87
2023-05-01T03:46:39.539Z,3.88
2023-05-01T03:48:33.530Z,3.91
2023-05-01T03:50:26.481Z,3.93
2023-05-01T03:52:19.624Z,3.95
2023-05-01T03:54:12.448Z,4.00
2023-05-01T03:56:26.317Z,4.03
2023-05-01T03:58:19.870Z,4.05
2023-05-01T04:00:13.633Z,4.08
2023-05-01T04:02:10.421Z,4.10
2023-05-01T04:04:04.232Z,4.13
2023-05-01T04:05:57.651Z,4.16
2023-05-01T04:07:50.756Z,4.19
2023-05-01T04:09:43.909Z,4.20
2023-05-01T04:11:36.859Z,4.22
2023-05-01T04:13:30.017Z,4.25
2023-05-01T04:15:23.069Z,4.28
2023-05-01T04:17:16.317Z,4.32
2023-05-01T04:19:09.570Z,4.37
2023-05-01T04:21:05.909Z,4.43
2023-05-01T04:22:58.950Z,4.51
2023-05-01T04:24:51.807Z,4.59
2023-05-01T04:26:45.050Z,4.66
2023-05-01T04:28:38.104Z,4.72
2023-05-01T04:30:32.507Z,4.79
2023-05-01T04:32:25.482Z,4.87
2023-05-01T04:34:19.729Z,4.94
2023-05-01T04:36:13.064Z,4.97
2023-05-01T04:38:07.142Z,5.00
2023-05-01T04:40:00.905Z,5.03
2023-05-01T04:41:53.960Z,5.08
2023-05-01T04:43:46.912Z,5.11
2023-05-01T04:45:42.265Z,5.16
2023-05-01T04:47:35.363Z,5.22
2023-05-01T04:49:28.835Z,5.28
2023-05-01T04:51:21.777Z,5.33
2023-05-01T04:53:14.719Z,5.36
2023-05-01T04:55:12.270Z,5.39
2023-05-01T04:57:12.084Z,5.45
2023-05-01T04:59:05.138Z,5.50
2023-05-01T05:00:58.178Z,5.56
2023-05-01T05:02:51.243Z,5.63
2023-05-01T05:04:44.185Z,5.68
2023-05-01T05:06:37.214Z,5.74
2023-05-01T05:08:31.592Z,5.80
2023-05-01T05:10:34.508Z,5.88
2023-05-01T05:12:37.481Z,5.97
2023-05-01T05:14:31.565Z,6.03
2023-05-01T05:16:26.490Z,6.11
2023-05-01T05:18:20.121Z,6.18
2023-05-01T05:20:13.172Z,6.27
2023-05-01T05:22:06.190Z,6.35
2023-05-01T05:24:01.582Z,6.41
2023-05-01T05:25:54.398Z,6.47
2023-05-01T05:27:47.209Z,6.55
2023-05-01T05:29:40.158Z,6.63
2023-05-01T05:31:33.043Z,6.72
2023-05-01T05:33:26.069Z,6.80
2023-05-01T05:35:19.514Z,6.90
2023-05-01T05:37:13.180Z,6.98
2023-05-01T05:39:13.304Z,7.06
2023-05-01T05:41:06.399Z,7.16
2023-05-01T05:42:59.404Z,7.25
2023-05-01T05:44:53.124Z,7.35
2023-05-01T05:46:46.218Z,7.47
2023-05-01T05:48:39.364Z,7.61
2023-05-01T05:50:32.212Z,7.74
2023-05-01T05:52:25.165Z,7.86
2023-05-01T05:54:18.113Z,7.99
2023-05-01T05:56:11.688Z,8.14
2023-05-01T05:58:04.831Z,8.31
2023-05-01T05:59:58.230Z,8.45
2023-05-01T06:01:51.562Z,8.61
2023-05-01T06:03:45.137Z,8.74
2023-05-01T06:05:38.390Z,8.87
2023-05-01T06:07:31.413Z,8.98
2023-05-01T06:09:24.259Z,9.10
2023-05-01T06:11:17.821Z,9.26
2023-05-01T06:13:13.330Z,9.42
2023-05-01T06:15:09.542Z,9.57
2023-05-01T06:17:05.984Z,9.71
2023-05-01T06:18:59.135Z,9.86
2023-05-01T06:20:52.597Z,10.00
2023-05-01T06:22:46.878Z,10.15
2023-05-01T06:25:03.079Z,10.29
2023-05-01T06:26:56.430Z,10.42
2023-05-01T06:28:49.486Z,10.57
2023-05-01T06:30:42.636Z,10.73
2023-05-01T06:32:36.025Z,10.89
2023-05-01T06:34:29.035Z,11.07
2023-05-01T06:36:22.306Z,11.23
2023-05-01T06:38:15.143Z,11.40
2023-05-01T06:40:09.818Z,11.54
2023-05-01T06:42:03.471Z,11.69
2023-05-01T06:43:58.690Z,11.85
2023-05-01T06:45:51.637Z,12.03
2023-05-01T06:47:44.524Z,12.22
2023-05-01T06:49:37.545Z,12.40
2023-05-01T06:51:31.609Z,12.57
2023-05-01T06:53:24.453Z,12.76
2023-05-01T06:55:17.406Z,12.91
2023-05-01T06:57:10.968Z,13.06
2023-05-01T06:59:03.913Z,13.22
2023-05-01T07:00:57.086Z,13.34
2023-05-01T07:02:50.032Z,13.47
2023-05-01T07:04:44.601Z,13.64
2023-05-01T07:06:37.710Z,13.83
2023-05-01T07:08:32.240Z,13.99
2023-05-01T07:10:25.084Z,14.11
2023-05-01T07:12:17.936Z,14.24
2023-05-01T07:14:10.880Z,14.36
2023-05-01T07:16:03.884Z,14.54
2023-05-01T07:17:56.899Z,14.70
2023-05-01T07:19:50.378Z,14.83
2023-05-01T07:21:43.296Z,14.98
2023-05-01T07:23:36.134Z,15.12
2023-05-01T07:25:30.116Z,15.25
2023-05-01T07:27:23.055Z,15.35
2023-05-01T07:29:16.753Z,15.43
2023-05-01T07:31:10.387Z,15.55
2023-05-01T07:33:05.685Z,15.66
2023-05-01T07:34:58.957Z,15.77
2023-05-01T07:36:52.000Z,15.85
2023-05-01T07:38:45.462Z,15.96
2023-05-01T07:40:38.713Z,16.13
2023-05-01T07:42:31.862Z,16.27
2023-05-01T07:44:24.706Z,16.35
2023-05-01T07:46:17.702Z,16.40
2023-05-01T07:48:11.002Z,16.47
2023-05-01T07:50:04.779Z,16.56
2023-05-01T07:51:57.625Z,16.65
2023-05-01T07:53:50.875Z,16.74
2023-05-01T07:55:43.724Z,16.83
2023-05-01T07:57:37.083Z,16.97
2023-05-01T07:59:30.038Z,17.13
2023-05-01T08:01:23.695Z,17.22
2023-05-01T08:03:16.796Z,17.26
2023-05-01T08:05:10.262Z,17.29
2023-05-01T08:07:03.074Z,17.36
2023-05-01T08:08:55.902Z,17.45
2023-05-01T08:10:49.306Z,17.55
2023-05-01T08:12:42.307Z,17.62
2023-05-01T08:14:35.164Z,17.66
2023-05-01T08:16:28.029Z,17.72
2023-05-01T08:18:21.366Z,17.74
2023-05-01T08:20:14.526Z,17.79
2023-05-01T08:22:07.389Z,17.90
2023-05-01T08:24:00.408Z,17.95
2023-05-01T08:25:53.356Z,17.98
2023-05-01T08:27:46.406Z,17.99
2023-05-01T08:29:39.359Z,18.02
2023-05-01T08:31:32.257Z,17.99
2023-05-01T08:33:25.259Z,18.11
2023-05-01T08:35:18.061Z,18.20
2023-05-01T08:37:10.859Z,18.26
2023-05-01T08:39:04.201Z,18.28
2023-05-01T08:40:59.106Z,18.26
2023-05-01T08:42:52.352Z,18.29
2023-05-01T08:44:46.630Z,18.43
2023-05-01T08:46:49.645Z,18.50
2023-05-01T08:48:44.112Z,18.53
2023-05-01T08:50:39.520Z,18.60
2023-05-01T08:52:33.983Z,18.67
2023-05-01T08:54:28.212Z,18.69
2023-05-01T08:56:23.744Z,18.74
2023-05-01T08:58:18.440Z,18.79
2023-05-01T09:00:18.495Z,18.82
2023-05-01T09:02:11.898Z,18.88
2023-05-01T09:04:06.934Z,18.95
2023-05-01T09:06:02.359Z,18.99
2023-05-01T09:07:55.285Z,19.03
2023-05-01T09:09:48.227Z,19.13
2023-05-01T09:11:44.949Z,19.19
2023-05-01T09:13:38.628Z,19.22
2023-05-01T09:15:32.808Z,19.23
2023-05-01T09:17:25.805Z,19.30
2023-05-01T09:19:20.030Z,19.40
2023-05-01T09:21:13.491Z,19.44
2023-05-01T09:23:06.646Z,19.42
2023-05-01T09:24:59.700Z,19.46
2023-05-01T09:26:52.750Z,19.60
2023-05-01T09:28:47.288Z,19.73
2023-05-01T09:30:40.180Z,19.86
2023-05-01T09:32:33.517Z,19.93
2023-05-01T09:34:26.483Z,20.00
2023-05-01T09:36:19.332Z,20.10
2023-05-01T09:38:18.406Z,20.15
2023-05-01T09:40:12.149Z,20.17
2023-05-01T09:42:05.262Z,20.15
2023-05-01T09:43:59.430Z,20.09
2023-05-01T09:46:02.236Z,20.08
2023-05-01T09:48:11.750Z,20.22
2023-05-01T09:50:05.498Z,20.30
2023-05-01T09:52:11.479Z,20.34
2023-05-01T09:54:05.437Z,20.33
2023-05-01T09:56:02.355Z,20.34
2023-05-01T09:57:55.219Z,20.40
2023-05-01T10:00:02.710Z,20.49
2023-05-01T10:01:57.247Z,20.59
2023-05-01T10:03:55.398Z,20.61
2023-05-01T10:05:48.826Z,20.62
2023-05-01T10:07:59.994Z,20.61
2023-05-01T10:09:54.142Z,20.58
2023-05-01T10:11:52.201Z,20.59
2023-05-01T10:13:45.097Z,20.66
2023-05-01T10:15:37.935Z,20.63
2023-05-01T10:17:32.282Z,20.60
2023-05-01T10:19:25.876Z,20.59
2023-05-01T10:21:18.727Z,20.57
2023-05-01T10:23:12.197Z,20.53
2023-05-01T10:25:08.708Z,20.52
2023-05-01T10:27:04.836Z,20.52
2023-05-01T10:29:01.885Z,20.57
2023-05-01T10:30:56.078Z,20.65
2023-05-01T10:32:49.873Z,20.74
2023-05-01T10:34:48.765Z,20.79
2023-05-01T10:36:46.064Z,20.72
2023-05-01T10:38:39.214Z,20.66
2023-05-01T10:40:45.091Z,20.67
2023-05-01T10:43:16.963Z,20.70
2023-05-01T10:45:29.231Z,20.71
2023-05-01T10:47:25.469Z,20.69
2023-05-01T10:49:18.812Z,20.71
2023-05-01T10:51:14.514Z,20.71
2023-05-01T10:53:10.859Z,20.73
2023-05-01T10:55:36.431Z,20.79
2023-05-01T10:57:44.162Z,20.89
2023-05-01T10:59:59.152Z,20.94
2023-05-01T11:01:53.187Z,20.87
2023-05-01T11:03:46.050Z,20.77
2023-05-01T11:06:09.002Z,20.66
2023-05-01T11:08:30.950Z,20.60
2023-05-01T11:10:26.227Z,20.63
2023-05-01T11:12:48.504Z,20.64
2023-05-01T11:15:08.799Z,20.66
2023-05-01T11:17:01.813Z,20.59
2023-05-01T11:18:54.645Z,20.49
2023-05-01T11:20:48.852Z,20.40
2023-05-01T11:22:47.325Z,20.30
2023-05-01T11:24:41.459Z,20.15
2023-05-01T11:26:42.256Z,20.05
2023-05-01T11:28:38.381Z,19.98
2023-05-01T11:30:38.373Z,19.99
2023-05-01T11:32:31.343Z,20.06
2023-05-01T11:34:25.164Z,20.14
2023-05-01T11:36:20.468Z,20.19
2023-05-01T11:38:18.941Z,20.20
2023-05-01T11:40:32.624Z,20.16
2023-05-01T11:42:25.456Z,20.13
2023-05-01T11:44:18.846Z,20.14
2023-05-01T11:46:13.744Z,20.17
2023-05-01T11:48:16.509Z,20.19
2023-05-01T11:50:10.647Z,20.14
2023-05-01T11:52:03.692Z,20.05
2023-05-01T11:54:07.223Z,19.96
2023-05-01T11:56:01.083Z,19.93
2023-05-01T11:57:54.305Z,19.91
2023-05-01T11:59:48.253Z,19.92
2023-05-01T12:01:44.589Z,19.94
2023-05-01T12:03:45.080Z,19.99
2023-05-01T12:05:43.992Z,19.98
2023-05-01T12:07:37.681Z,19.96
2023-05-01T12:09:31.504Z,19.95
2023-05-01T12:11:24.912Z,19.94
2023-05-01T12:13:18.373Z,19.92
2023-05-01T12:15:12.214Z,19.89
2023-05-01T12:17:07.278Z,19.84
2023-05-01T12:19:00.907Z,19.77
2023-05-01T12:20:55.498Z,19.69
2023-05-01T12:22:51.218Z,19.57
2023-05-01T12:24:52.624Z,19.46
2023-05-01T12:26:46.621Z,19.37
2023-05-01T12:28:39.775Z,19.33
2023-05-01T12:30:32.928Z,19.34
2023-05-01T12:32:31.824Z,19.35
2023-05-01T12:34:31.009Z,19.31
2023-05-01T12:36:25.788Z,19.22
2023-05-01T12:38:21.098Z,19.14
2023-05-01T12:40:14.905Z,19.08
2023-05-01T12:42:15.445Z,19.05
2023-05-01T12:44:27.492Z,19.03
2023-05-01T12:46:20.551Z,18.98
2023-05-01T12:48:15.247Z,18.92
2023-05-01T12:50:10.108Z,18.89
2023-05-01T12:52:04.899Z,18.91
2023-05-01T12:53:58.371Z,18.88
2023-05-01T12:55:53.371Z,18.86
2023-05-01T12:57:54.110Z,18.88
2023-05-01T12:59:48.276Z,18.87
2023-05-01T13:01:41.267Z,18.86
2023-05-01T13:03:37.708Z,18.90
2023-05-01T13:05:32.344Z,18.90
2023-05-01T13:07:25.189Z,18.87
2023-05-01T13:09:18.553Z,18.83
2023-05-01T13:11:13.447Z,18.79
2023-05-01T13:13:06.805Z,18.75
2023-05-01T13:15:00.362Z,18.75
2023-05-01T13:16:55.034Z,18.76
2023-05-01T13:18:52.812Z,18.77
2023-05-01T13:20:45.971Z,18.83
2023-05-01T13:22:39.324Z,18.90
2023-05-01T13:24:44.155Z,18.95
2023-05-01T13:26:37.407Z,18.92
2023-05-01T13:28:32.092Z,18.93
2023-05-01T13:30:33.764Z,18.92
2023-05-01T13:32:27.372Z,18.86
2023-05-01T13:34:30.300Z,18.84
2023-05-01T13:36:26.927Z,18.82
2023-05-01T13:38:23.565Z,18.78
2023-05-01T13:40:18.664Z,18.77
2023-05-01T13:42:12.953Z,18.75
2023-05-01T13:44:07.014Z,18.72
2023-05-01T13:46:00.545Z,18.69
2023-05-01T13:47:55.412Z,18.69
2023-05-01T13:49:49.253Z,18.69
2023-05-01T13:51:44.949Z,18.69
2023-05-01T13:53:40.333Z,18.68
2023-05-01T13:55:33.716Z,18.66
2023-05-01T13:57:26.662Z,18.65
2023-05-01T13:59:19.504Z,18.65
2023-05-01T14:01:16.106Z,18.64
2023-05-01T14:03:10.487Z,18.62
2023-05-01T14:05:09.598Z,18.61
2023-05-01T14:07:02.971Z,18.58
2023-05-01T14:08:59.918Z,18.54
2023-05-01T14:10:52.755Z,18.53
2023-05-01T14:12:46.013Z,18.53
2023-05-01T14:14:47.403Z,18.53
2023-05-01T14:16:41.168Z,18.54
2023-05-01T14:18:35.398Z,18.57
2023-05-01T14:20:28.174Z,18.59
2023-05-01T14:22:22.331Z,18.62
2023-05-01T14:24:18.283Z,18.64
2023-05-01T14:26:17.056Z,18.62
2023-05-01T14:28:11.828Z,18.58
2023-05-01T14:30:06.924Z,18.53
2023-05-01T14:32:04.441Z,18.49
2023-05-01T14:34:02.351Z,18.44
2023-05-01T14:35:55.487Z,18.38
2023-05-01T14:37:48.437Z,18.34
2023-05-01T14:39:41.282Z,18.30
2023-05-01T14:41:38.330Z,18.27
2023-05-01T14:43:31.682Z,18.24
2023-05-01T14:45:24.743Z,18.23
2023-05-01T14:47:21.805Z,18.22
2023-05-01T14:49:24.466Z,18.20
2023-05-01T14:51:20.153Z,18.19
2023-05-01T14:53:14.148Z,18.19
2023-05-01T14:55:08.384Z,18.20
2023-05-01T14:57:03.933Z,18.23
2023-05-01T14:58:56.781Z,18.24
2023-05-01T15:00:49.628Z,18.26
2023-05-01T15:02:42.705Z,18.26
2023-05-01T15:04:35.821Z,18.28
2023-05-01T15:06:28.843Z,18.30
2023-05-01T15:08:21.938Z,18.32
2023-05-01T15:10:16.111Z,18.34
2023-05-01T15:12:10.101Z,18.35
2023-05-01T15:14:04.238Z,18.37
2023-05-01T15:15:57.339Z,18.37
2023-05-01T15:17:50.390Z,18.36
2023-05-01T15:19:43.430Z,18.37
2023-05-01T15:21:36.671Z,18.37
2023-05-01T15:23:31.241Z,18.35
2023-05-01T15:25:24.207Z,18.32
2023-05-01T15:27:17.956Z,18.29
2023-05-01T15:29:11.232Z,18.28
2023-05-01T15:31:04.021Z,18.24
2023-05-01T15:32:57.267Z,18.20
2023-05-01T15:34:56.767Z,18.14
2023-05-01T15:36:50.749Z,18.08
2023-05-01T15:38:43.653Z,18.04
2023-05-01T15:40:36.498Z,18.01
2023-05-01T15:42:29.354Z,18.00
2023-05-01T15:44:22.196Z,18.00
2023-05-01T15:46:15.621Z,18.01
2023-05-01T15:48:09.060Z,18.02
2023-05-01T15:50:02.437Z,18.04
2023-05-01T15:51:55.522Z,18.06
2023-05-01T15:53:48.371Z,18.08
2023-05-01T15:55:41.411Z,18.11
2023-05-01T15:57:34.990Z,18.12
2023-05-01T15:59:27.923Z,18.15
2023-05-01T16:01:21.201Z,18.17
2023-05-01T16:03:14.177Z,18.17
2023-05-01T16:05:08.689Z,18.19
2023-05-01T16:07:02.754Z,18.18
2023-05-01T16:08:58.297Z,18.17
2023-05-01T16:10:51.546Z,18.16
2023-05-01T16:12:44.492Z,18.15
2023-05-01T16:14:43.250Z,18.14
2023-05-01T16:16:36.269Z,18.12
2023-05-01T16:18:29.369Z,18.10
2023-05-01T16:20:24.225Z,18.08
2023-05-01T16:22:17.272Z,18.05
2023-05-01T16:24:10.993Z,18.03
2023-05-01T16:26:05.266Z,18.02
2023-05-01T16:27:58.014Z,18.01
2023-05-01T16:29:50.858Z,17.98
2023-05-01T16:31:47.512Z,17.94
2023-05-01T16:33:41.558Z,17.92
2023-05-01T16:35:36.357Z,17.89
2023-05-01T16:37:29.420Z,17.86
2023-05-01T16:39:22.761Z,17.83
2023-05-01T16:41:17.453Z,17.78
2023-05-01T16:43:10.504Z,17.74
2023-05-01T16:45:07.282Z,17.69
2023-05-01T16:47:03.550Z,17.63
2023-05-01T16:48:56.518Z,17.55
2023-05-01T16:50:49.488Z,17.48
2023-05-01T16:52:42.420Z,17.41
2023-05-01T16:54:36.489Z,17.35
2023-05-01T16:56:29.332Z,17.30
2023-05-01T16:58:22.062Z,17.26
2023-05-01T17:00:16.129Z,17.22
2023-05-01T17:02:09.294Z,17.16
2023-05-01T17:04:02.928Z,17.12
2023-05-01T17:05:55.996Z,17.09
2023-05-01T17:07:48.966Z,17.06
2023-05-01T17:09:41.816Z,17.02
2023-05-01T17:11:34.663Z,16.98
2023-05-01T17:13:27.512Z,16.93
2023-05-01T17:15:20.345Z,16.88
2023-05-01T17:17:13.430Z,16.83
2023-05-01T17:19:09.122Z,16.79
2023-05-01T17:21:02.061Z,16.74
2023-05-01T17:22:54.938Z,16.70
2023-05-01T17:24:47.957Z,16.67
2023-05-01T17:26:40.810Z,16.63
2023-05-01T17:28:33.851Z,16.60
2023-05-01T17:30:26.800Z,16.58
2023-05-01T17:32:33.205Z,16.56
2023-05-01T17:34:29.182Z,16.55
2023-05-01T17:36:23.979Z,16.51
2023-05-01T17:38:17.259Z,16.49
2023-05-01T17:40:13.567Z,16.47
2023-05-01T17:42:06.615Z,16.45
2023-05-01T17:43:59.463Z,16.42
2023-05-01T17:45:52.750Z,16.39
2023-05-01T17:47:46.692Z,16.36
2023-05-01T17:49:39.632Z,16.32
2023-05-01T17:51:33.300Z,16.29
2023-05-01T17:53:26.253Z,16.25
2023-05-01T17:55:19.198Z,16.20
2023-05-01T17:57:12.038Z,16.16
2023-05-01T17:59:04.893Z,16.11
2023-05-01T18:00:58.953Z,16.06
2023-05-01T18:02:52.077Z,16.00
2023-05-01T18:04:47.002Z,15.94
2023-05-01T18:06:39.962Z,15.87
2023-05-01T18:08:34.146Z,15.83
2023-05-01T18:10:31.343Z,15.79
2023-05-01T18:12:24.936Z,15.76
2023-05-01T18:14:17.785Z,15.72
2023-05-01T18:16:11.889Z,15.67
2023-05-01T18:18:05.081Z,15.61
2023-05-01T18:19:58.258Z,15.57
2023-05-01T18:21:51.430Z,15.51
2023-05-01T18:23:45.489Z,15.46
2023-05-01T18:25:39.574Z,15.40
2023-05-01T18:27:32.615Z,15.35
2023-05-01T18:29:27.002Z,15.31
2023-05-01T18:31:19.886Z,15.27
2023-05-01T18:33:13.146Z,15.23
2023-05-01T18:35:06.452Z,15.19
2023-05-01T18:36:59.310Z,15.15
2023-05-01T18:38:52.155Z,15.11
2023-05-01T18:40:45.009Z,15.07
2023-05-01T18:42:38.051Z,15.03
2023-05-01T18:44:31.512Z,14.98
2023-05-01T18:46:24.421Z,14.93
2023-05-01T18:48:17.719Z,14.87
2023-05-01T18:50:11.495Z,14.83
2023-05-01T18:52:04.534Z,14.79
2023-05-01T18:53:57.381Z,14.75
2023-05-01T18:55:50.512Z,14.71
2023-05-01T18:57:43.838Z,14.68
2023-05-01T18:59:36.840Z,14.64
2023-05-01T19:01:29.888Z,14.62
2023-05-01T19:03:22.837Z,14.60
2023-05-01T19:05:16.023Z,14.58
2023-05-01T19:07:08.843Z,14.53
2023-05-01T19:09:01.991Z,14.49
2023-05-01T19:10:54.776Z,14.45
2023-05-01T19:12:47.573Z,14.41
2023-05-01T19:14:40.417Z,14.37
2023-05-01T19:16:33.282Z,14.33
2023-05-01T19:18:26.216Z,14.27
2023-05-01T19:20:19.162Z,14.22
2023-05-01T19:22:12.008Z,14.18
2023-05-01T19:24:05.363Z,14.15
2023-05-01T19:25:58.206Z,14.10
2023-05-01T19:27:51.808Z,14.06
2023-05-01T19:29:45.133Z,14.00
2023-05-01T19:31:38.081Z,13.95
2023-05-01T19:33:30.923Z,13.89
2023-05-01T19:35:23.971Z,13.82
2023-05-01T19:37:16.818Z,13.78
2023-05-01T19:39:10.287Z,13.75
2023-05-01T19:41:03.230Z,13.74
2023-05-01T19:42:56.075Z,13.73
2023-05-01T19:44:48.921Z,13.73
2023-05-01T19:46:41.781Z,13.71
2023-05-01T19:48:34.662Z,13.68
2023-05-01T19:50:27.663Z,13.67
2023-05-01T19:52:20.723Z,13.65
2023-05-01T19:54:13.573Z,13.64
2023-05-01T19:56:06.924Z,13.63
2023-05-01T19:57:59.874Z,13.60
2023-05-01T19:59:55.172Z,13.57
2023-05-01T20:01:48.114Z,13.54
2023-05-01T20:03:41.240Z,13.50
2023-05-01T20:05:34.178Z,13.46
2023-05-01T20:07:28.603Z,13.42
2023-05-01T20:09:21.446Z,13.39
2023-05-01T20:11:14.920Z,13.36
2023-05-01T20:13:10.947Z,13.32
2023-05-01T20:15:05.465Z,13.28
2023-05-01T20:16:58.577Z,13.25
2023-05-01T20:18:52.131Z,13.21
2023-05-01T20:20:45.086Z,13.18
2023-05-01T20:22:37.924Z,13.15
2023-05-01T20:24:31.608Z,13.14
2023-05-01T20:26:24.947Z,13.11
2023-05-01T20:28:18.403Z,13.09
2023-05-01T20:30:11.745Z,13.07
2023-05-01T20:32:04.715Z,13.05
2023-05-01T20:33:57.659Z,13.03
2023-05-01T20:35:51.529Z,13.02
2023-05-01T20:37:44.384Z,13.01
2023-05-01T20:39:37.221Z,12.99
2023-05-01T20:41:30.988Z,12.97
2023-05-01T20:43:23.840Z,12.94
2023-05-01T20:45:16.799Z,12.93
2023-05-01T20:47:10.142Z,12.91
2023-05-01T20:49:03.098Z,12.89
2023-05-01T20:50:56.144Z,12.87
2023-05-01T20:52:49.392Z,12.84
2023-05-01T20:54:42.267Z,12.82
2023-05-01T20:56:35.810Z,12.81
2023-05-01T20:58:28.650Z,12.79
2023-05-01T21:00:21.506Z,12.78
2023-05-01T21:02:15.398Z,12.77
2023-05-01T21:04:08.594Z,12.77
2023-05-01T21:06:02.463Z,12.77
2023-05-01T21:07:57.486Z,12.75
2023-05-01T21:09:50.429Z,12.75
2023-05-01T21:11:43.276Z,12.74
2023-05-01T21:13:36.223Z,12.73
2023-05-01T21:15:31.228Z,12.71
2023-05-01T21:17:24.170Z,12.70
2023-05-01T21:19:17.124Z,12.69
2023-05-01T21:21:10.778Z,12.68
2023-05-01T21:23:04.666Z,12.68
2023-05-01T21:24:59.474Z,12.66
2023-05-01T21:26:55.260Z,12.66
2023-05-01T21:28:48.119Z,12.65
2023-05-01T21:30:41.577Z,12.63
2023-05-01T21:32:40.369Z,12.62
2023-05-01T21:34:34.016Z,12.61
2023-05-01T21:36:26.813Z,12.60
2023-05-01T21:38:19.916Z,12.59
2023-05-01T21:40:14.634Z,12.59
2023-05-01T21:42:07.770Z,12.59
2023-05-01T21:44:03.425Z,12.56
2023-05-01T21:45:56.425Z,12.57
2023-05-01T21:47:51.074Z,12.55
2023-05-01T21:49:44.154Z,12.54
2023-05-01T21:51:38.637Z,12.53
2023-05-01T21:53:32.606Z,12.52
2023-05-01T21:55:26.380Z,12.51
2023-05-01T21:57:19.220Z,12.49
2023-05-01T21:59:12.278Z,12.47
2023-05-01T22:01:06.517Z,12.45
2023-05-01T22:02:59.600Z,12.42
2023-05-01T22:04:54.711Z,12.40
2023-05-01T22:06:47.654Z,12.38
2023-05-01T22:08:40.906Z,12.34
2023-05-01T22:10:33.851Z,12.31
2023-05-01T22:12:27.109Z,12.27
2023-05-01T22:14:20.612Z,12.23
2023-05-01T22:16:14.291Z,12.20
2023-05-01T22:18:07.523Z,12.15
2023-05-01T22:20:00.794Z,12.12
2023-05-01T22:21:53.901Z,12.08
2023-05-01T22:23:46.744Z,12.02
2023-05-01T22:25:39.588Z,11.98
2023-05-01T22:27:33.150Z,11.95
2023-05-01T22:29:26.101Z,11.92
2023-05-01T22:31:18.982Z,11.92
2023-05-01T22:33:12.322Z,11.89
2023-05-01T22:35:07.345Z,11.87
2023-05-01T22:37:00.596Z,11.83
2023-05-01T22:38:53.502Z,11.79
2023-05-01T22:40:46.357Z,11.76
2023-05-01T22:42:39.206Z,11.75
2023-05-01T22:44:33.348Z,11.73
2023-05-01T22:46:26.260Z,11.69
2023-05-01T22:48:19.337Z,11.65
2023-05-01T22:50:12.298Z,11.61
2023-05-01T22:52:05.354Z,11.56
2023-05-01T22:53:58.218Z,11.52
2023-05-01T22:55:51.167Z,11.48
2023-05-01T22:57:44.011Z,11.42
2023-05-01T22:59:37.717Z,11.36
2023-05-01T23:01:30.695Z,11.33
2023-05-01T23:03:23.855Z,11.26
2023-05-01T23:05:18.055Z,11.16
2023-05-01T23:07:13.836Z,11.10
2023-05-01T23:09:07.442Z,11.04
2023-05-01T23:11:00.277Z,10.98
2023-05-01T23:12:53.126Z,10.91
2023-05-01T23:14:46.901Z,10.85
2023-05-01T23:16:44.856Z,10.78
2023-05-01T23:18:39.851Z,10.71
2023-05-01T23:20:39.994Z,10.63
2023-05-01T23:22:38.649Z,10.60
2023-05-01T23:24:40.524Z,10.58
2023-05-01T23:26:33.459Z,10.56
2023-05-01T23:28:28.353Z,10.54
2023-05-01T23:30:22.126Z,10.51
2023-05-01T23:32:22.041Z,10.47
2023-05-01T23:34:17.614Z,10.43
2023-05-01T23:36:12.636Z,10.39
2023-05-01T23:38:05.483Z,10.34
2023-05-01T23:39:59.900Z,10.30
2023-05-01T23:41:53.529Z,10.26
2023-05-01T23:43:48.205Z,10.22
2023-05-01T23:45:41.275Z,10.19
2023-05-01T23:47:34.271Z,10.17
2023-05-01T23:49:27.792Z,10.18
2023-05-01T23:51:20.840Z,10.16
2023-05-01T23:53:14.188Z,10.16
2023-05-01T23:55:07.759Z,10.18
2023-05-01T23:57:00.928Z,10.17
2023-05-01T23:58:53.753Z,10.16
